createdAt,value
2017-04-15T00:00:02.356Z,48.61
2017-04-15T00:01:02.372Z,48.42
2017-04-15T00:02:02.393Z,48.52
2017-04-15T00:03:08.348Z,48.61
2017-04-15T00:04:02.442Z,48.9
2017-04-15T00:05:02.448Z,48.42
2017-04-15T00:06:02.466Z,48.52
2017-04-15T00:07:02.484Z,48.61
2017-04-15T00:08:02.502Z,48.9
2017-04-15T00:09:02.516Z,48.71
2017-04-15T00:10:02.538Z,48.8
2017-04-15T00:11:02.551Z,48.9
2017-04-15T00:12:02.576Z,48.8
2017-04-15T00:13:02.594Z,48.71
2017-04-15T00:14:02.614Z,48.71
2017-04-15T00:15:02.631Z,48.8
2017-04-15T00:16:02.646Z,48.8
2017-04-15T00:17:02.662Z,48.71
2017-04-15T00:18:02.684Z,48.71
2017-04-15T00:19:02.704Z,48.8
2017-04-15T00:20:02.738Z,48.8
2017-04-15T00:21:02.736Z,49.09
2017-04-15T00:22:02.756Z,49.28
2017-04-15T00:23:02.769Z,48.9
2017-04-15T00:24:02.791Z,48.9
2017-04-15T00:25:02.807Z,49.18
2017-04-15T00:26:02.830Z,49.09
2017-04-15T00:27:02.843Z,48.99
2017-04-15T00:28:02.867Z,48.99
2017-04-15T00:29:02.877Z,49.09
2017-04-15T00:30:02.897Z,49.09
2017-04-15T00:31:02.917Z,49.09
2017-04-15T00:32:02.934Z,48.99
2017-04-15T00:33:02.951Z,49.09
2017-04-15T00:34:02.972Z,48.9
2017-04-15T00:35:02.989Z,49.18
2017-04-15T00:36:03.027Z,49.38
2017-04-15T00:37:03.026Z,49.18
2017-04-15T00:38:03.049Z,49.09
2017-04-15T00:39:03.058Z,49.18
2017-04-15T00:40:03.078Z,49.85
2017-04-15T00:41:03.094Z,49.66
2017-04-15T00:42:03.162Z,49.28
2017-04-15T00:43:03.137Z,49.57
2017-04-15T00:44:03.159Z,49.57
2017-04-15T00:45:03.175Z,49.28
2017-04-15T00:46:03.190Z,49.16
2017-04-15T00:47:03.205Z,49.26
2017-04-15T00:48:02.921Z,49.18
2017-04-15T00:49:03.237Z,49.26
2017-04-15T00:50:03.281Z,49.18
2017-04-15T00:51:03.279Z,49.18
2017-04-15T00:52:03.308Z,49.26
2017-04-15T00:53:03.312Z,50.12
2017-04-15T00:54:03.330Z,50.12
2017-04-15T00:55:03.347Z,49.83
2017-04-15T00:56:03.088Z,49.66
2017-04-15T00:57:03.383Z,49.95
2017-04-15T00:58:03.405Z,49.95
2017-04-15T00:59:03.419Z,49.54
2017-04-15T01:00:03.132Z,49.83
2017-04-15T01:01:03.557Z,49.64
2017-04-15T01:02:03.565Z,49.93
2017-04-15T01:03:03.602Z,49.83
2017-04-15T01:04:03.645Z,49.73
2017-04-15T01:05:03.576Z,49.44
2017-04-15T01:06:03.584Z,49.57
2017-04-15T01:07:03.585Z,50.31
2017-04-15T01:08:03.593Z,49.54
2017-04-15T01:09:03.641Z,50.21
2017-04-15T01:10:03.640Z,49.44
2017-04-15T01:11:03.649Z,50.02
2017-04-15T01:12:03.663Z,50.21
2017-04-15T01:13:03.667Z,50.21
2017-04-15T01:14:03.727Z,50.33
2017-04-15T01:15:03.733Z,50.21
2017-04-15T01:16:03.741Z,49.64
2017-04-15T01:17:03.750Z,49.83
2017-04-15T01:18:03.878Z,49.54
2017-04-15T01:19:03.876Z,49.54
2017-04-15T01:20:03.882Z,49.54
2017-04-15T01:21:03.893Z,49.64
2017-04-15T01:22:03.900Z,50.49
2017-04-15T01:23:03.933Z,49.64
2017-04-15T01:24:03.933Z,50.31
2017-04-15T01:25:03.951Z,49.54
2017-04-15T01:26:03.917Z,49.64
2017-04-15T01:27:03.919Z,49.73
2017-04-15T01:28:03.938Z,49.64
2017-04-15T01:29:03.958Z,50.12
2017-04-15T01:30:03.973Z,50.02
2017-04-15T01:31:03.992Z,50.02
2017-04-15T01:32:04.008Z,50.02
2017-04-15T01:33:04.028Z,49.93
2017-04-15T01:34:04.049Z,49.73
2017-04-15T01:35:04.062Z,49.73
2017-04-15T01:36:04.084Z,50.21
2017-04-15T01:37:04.099Z,50.49
2017-04-15T01:38:04.117Z,50.12
2017-04-15T01:39:04.136Z,50.49
2017-04-15T01:40:04.157Z,50.4
2017-04-15T01:41:04.170Z,49.93
2017-04-15T01:42:04.189Z,50.31
2017-04-15T01:43:04.207Z,49.83
2017-04-15T01:44:04.223Z,49.93
2017-04-15T01:45:04.242Z,49.83
2017-04-15T01:46:04.257Z,49.83
2017-04-15T01:47:04.281Z,49.83
2017-04-15T01:48:04.302Z,50.59
2017-04-15T01:49:04.317Z,50.59
2017-04-15T01:50:04.335Z,49.73
2017-04-15T01:51:04.351Z,50.31
2017-04-15T01:52:04.364Z,50.59
2017-04-15T01:53:04.387Z,50.12
2017-04-15T01:54:04.403Z,49.83
2017-04-15T01:55:04.422Z,50.02
2017-04-15T01:56:04.439Z,50.4
2017-04-15T01:57:04.456Z,50.49
2017-04-15T01:58:04.474Z,50.4
2017-04-15T01:59:04.492Z,50.02
2017-04-15T02:00:04.515Z,50.21
2017-04-15T02:01:04.524Z,50.31
2017-04-15T02:02:04.545Z,50.31
2017-04-15T02:03:04.565Z,50.31
2017-04-15T02:04:04.581Z,50.4
2017-04-15T02:05:04.597Z,50.31
2017-04-15T02:06:04.615Z,50.59
2017-04-15T02:07:04.635Z,50.49
2017-04-15T02:08:04.652Z,50.49
2017-04-15T02:09:04.672Z,50.21
2017-04-15T02:10:04.685Z,50.21
2017-04-15T02:11:04.702Z,50.12
2017-04-15T02:12:04.722Z,50.4
2017-04-15T02:13:04.739Z,50.31
2017-04-15T02:14:04.759Z,50.69
2017-04-15T02:15:04.779Z,50.21
2017-04-15T02:16:04.794Z,50.49
2017-04-15T02:17:04.811Z,50.31
2017-04-15T02:18:04.828Z,50.31
2017-04-15T02:19:04.844Z,50.31
2017-04-15T02:20:04.868Z,50.59
2017-04-15T02:21:04.884Z,50.31
2017-04-15T02:22:04.900Z,50.31
2017-04-15T02:23:04.912Z,49.83
2017-04-15T02:24:04.932Z,50.21
2017-04-15T02:25:04.952Z,49.93
2017-04-15T02:26:04.967Z,50.4
2017-04-15T02:27:04.985Z,50.4
2017-04-15T02:28:05.004Z,49.93
2017-04-15T02:29:05.023Z,50.31
2017-04-15T02:30:05.038Z,50.4
2017-04-15T02:31:05.127Z,50.69
2017-04-15T02:32:05.076Z,50.21
2017-04-15T02:33:05.096Z,50.49
2017-04-15T02:34:05.108Z,50.31
2017-04-15T02:35:05.125Z,50.59
2017-04-15T02:36:05.148Z,50.59
2017-04-15T02:37:05.167Z,50.69
2017-04-15T02:38:05.180Z,50.69
2017-04-15T02:39:05.203Z,50.69
2017-04-15T02:40:05.239Z,50.88
2017-04-15T02:41:05.236Z,50.59
2017-04-15T02:42:05.252Z,50.49
2017-04-15T02:43:05.267Z,50.78
2017-04-15T02:44:05.288Z,50.78
2017-04-15T02:45:05.304Z,50.69
2017-04-15T02:46:05.321Z,50.78
2017-04-15T02:47:05.342Z,50.78
2017-04-15T02:48:05.362Z,50.78
2017-04-15T02:49:05.377Z,50.69
2017-04-15T02:50:05.396Z,50.78
2017-04-15T02:51:05.412Z,50.78
2017-04-15T02:52:05.431Z,50.88
2017-04-15T02:53:05.545Z,50.98
2017-04-15T02:54:05.558Z,50.69
2017-04-15T02:55:05.563Z,50.59
2017-04-15T02:56:05.564Z,50.31
2017-04-15T02:57:05.571Z,50.98
2017-04-15T02:58:05.579Z,50.59
2017-04-15T02:59:05.587Z,50.59
2017-04-15T03:00:05.598Z,50.59
2017-04-15T03:01:05.596Z,50.88
2017-04-15T03:02:05.610Z,50.78
2017-04-15T03:03:05.625Z,50.78
2017-04-15T03:04:05.759Z,50.78
2017-04-15T03:05:05.731Z,50.69
2017-04-15T03:06:05.742Z,50.78
2017-04-15T03:07:05.696Z,51.07
2017-04-15T03:08:05.826Z,50.95
2017-04-15T03:09:05.828Z,50.78
2017-04-15T03:10:05.845Z,51.07
2017-04-15T03:11:05.548Z,50.69
2017-04-15T03:12:05.555Z,51.17
2017-04-15T03:13:06.044Z,50.67
2017-04-15T03:14:06.050Z,51.07
2017-04-15T03:15:06.060Z,51.07
2017-04-15T03:16:06.069Z,51.07
2017-04-15T03:17:05.758Z,50.85
2017-04-15T03:18:06.111Z,51.07
2017-04-15T03:19:06.127Z,51.17
2017-04-15T03:20:06.121Z,51.07
2017-04-15T03:21:06.132Z,50.88
2017-04-15T03:22:05.822Z,51.23
2017-04-15T03:23:06.145Z,51.14
2017-04-15T03:24:06.152Z,51.04
2017-04-15T03:25:06.161Z,51.14
2017-04-15T03:26:06.174Z,51.35
2017-04-15T03:27:06.170Z,51.14
2017-04-15T03:28:06.178Z,51.33
2017-04-15T03:29:06.197Z,51.33
2017-04-15T03:30:06.160Z,50.95
2017-04-15T03:31:06.160Z,51.26
2017-04-15T03:32:06.164Z,51.33
2017-04-15T03:33:06.172Z,51.23
2017-04-15T03:34:06.182Z,51.23
2017-04-15T03:35:06.191Z,51.04
2017-04-15T03:36:06.203Z,51.33
2017-04-15T03:37:06.221Z,51.26
2017-04-15T03:38:06.238Z,51.35
2017-04-15T03:39:06.260Z,51.04
2017-04-15T03:40:06.272Z,51.04
2017-04-15T03:41:06.293Z,51.23
2017-04-15T03:42:06.310Z,51.04
2017-04-15T03:43:06.322Z,51.14
2017-04-15T03:44:06.344Z,51.23
2017-04-15T03:45:06.363Z,51.14
2017-04-15T03:46:06.575Z,51.23
2017-04-15T03:47:06.394Z,51.23
2017-04-15T03:48:06.430Z,51.14
2017-04-15T03:49:06.430Z,51.14
2017-04-15T03:50:06.132Z,51.33
2017-04-15T03:51:06.465Z,50.76
2017-04-15T03:52:06.483Z,51.23
2017-04-15T03:53:06.505Z,51.43
2017-04-15T03:54:06.514Z,51.23
2017-04-15T03:55:06.536Z,51.43
2017-04-15T03:56:06.558Z,51.52
2017-04-15T03:57:06.571Z,51.62
2017-04-15T03:58:06.588Z,51.62
2017-04-15T03:59:06.607Z,51.62
2017-04-15T04:00:06.621Z,51.52
2017-04-15T04:01:06.637Z,51.62
2017-04-15T04:02:06.671Z,51.52
2017-04-15T04:03:06.690Z,51.71
2017-04-15T04:04:06.693Z,51.43
2017-04-15T04:05:06.708Z,51.43
2017-04-15T04:06:06.727Z,51.62
2017-04-15T04:07:06.750Z,51.52
2017-04-15T04:08:06.866Z,51.14
2017-04-15T04:09:06.779Z,51.33
2017-04-15T04:10:06.799Z,51.33
2017-04-15T04:11:06.814Z,51.43
2017-04-15T04:12:06.830Z,51.23
2017-04-15T04:13:06.849Z,51.43
2017-04-15T04:14:06.869Z,51.52
2017-04-15T04:15:06.884Z,51.62
2017-04-15T04:16:06.901Z,51.52
2017-04-15T04:17:06.918Z,51.33
2017-04-15T04:18:06.935Z,51.81
2017-04-15T04:19:06.953Z,51.52
2017-04-15T04:20:06.970Z,51.62
2017-04-15T04:21:06.989Z,51.43
2017-04-15T04:22:07.005Z,51.81
2017-04-15T04:23:07.025Z,51.43
2017-04-15T04:24:07.044Z,52
2017-04-15T04:25:07.055Z,51.62
2017-04-15T04:26:07.075Z,51.52
2017-04-15T04:27:07.093Z,51.52
2017-04-15T04:28:07.111Z,51.43
2017-04-15T04:29:07.129Z,51.62
2017-04-15T04:30:07.142Z,51.62
2017-04-15T04:31:07.163Z,51.81
2017-04-15T04:32:07.182Z,51.81
2017-04-15T04:33:07.200Z,51.71
2017-04-15T04:34:07.218Z,51.81
2017-04-15T04:35:07.233Z,52
2017-04-15T04:36:07.246Z,51.62
2017-04-15T04:37:07.265Z,51.71
2017-04-15T04:38:07.284Z,51.71
2017-04-15T04:39:07.301Z,51.9
2017-04-15T04:40:07.318Z,51.71
2017-04-15T04:41:07.338Z,51.62
2017-04-15T04:42:07.356Z,51.71
2017-04-15T04:43:07.476Z,51.71
2017-04-15T04:44:07.388Z,51.9
2017-04-15T04:45:07.403Z,51.62
2017-04-15T04:46:07.108Z,51.9
2017-04-15T04:47:07.441Z,51.71
2017-04-15T04:48:07.456Z,51.62
2017-04-15T04:49:07.472Z,51.71
2017-04-15T04:50:07.488Z,51.9
2017-04-15T04:51:07.510Z,51.9
2017-04-15T04:52:07.525Z,51.71
2017-04-15T04:53:07.543Z,51.81
2017-04-15T04:54:07.247Z,51.9
2017-04-15T04:55:07.579Z,51.81
2017-04-15T04:56:07.594Z,51.81
2017-04-15T04:57:07.613Z,51.71
2017-04-15T04:58:07.630Z,51.9
2017-04-15T04:59:07.645Z,51.81
2017-04-15T05:00:07.666Z,52
2017-04-15T05:01:07.680Z,51.9
2017-04-15T05:02:07.701Z,51.81
2017-04-15T05:03:07.717Z,51.81
2017-04-15T05:04:07.737Z,51.81
2017-04-15T05:05:07.752Z,51.9
2017-04-15T05:06:07.770Z,51.9
2017-04-15T05:07:07.782Z,51.81
2017-04-15T05:08:07.806Z,51.81
2017-04-15T05:09:07.824Z,51.81
2017-04-15T05:10:07.839Z,51.81
2017-04-15T05:11:07.855Z,51.9
2017-04-15T05:12:07.879Z,51.9
2017-04-15T05:13:07.888Z,51.71
2017-04-15T05:14:07.908Z,51.81
2017-04-15T05:15:07.926Z,51.9
2017-04-15T05:16:07.942Z,51.81
2017-04-15T05:17:07.957Z,51.81
2017-04-15T05:18:07.993Z,51.9
2017-04-15T05:19:07.995Z,51.81
2017-04-15T05:20:07.697Z,51.81
2017-04-15T05:21:08.027Z,51.9
2017-04-15T05:22:08.043Z,51.9
2017-04-15T05:23:08.062Z,51.9
2017-04-15T05:24:08.081Z,51.9
2017-04-15T05:25:08.100Z,52.09
2017-04-15T05:26:08.112Z,51.81
2017-04-15T05:27:08.130Z,51.81
2017-04-15T05:28:08.153Z,51.81
2017-04-15T05:29:08.167Z,52
2017-04-15T05:30:08.184Z,51.71
2017-04-15T05:31:08.207Z,52
2017-04-15T05:32:08.217Z,51.71
2017-04-15T05:33:08.237Z,51.81
2017-04-15T05:34:08.343Z,52
2017-04-15T05:35:08.268Z,51.81
2017-04-15T05:36:08.286Z,52.09
2017-04-15T05:37:08.304Z,51.81
2017-04-15T05:38:08.319Z,52.19
2017-04-15T05:39:08.338Z,52.09
2017-04-15T05:40:08.062Z,52.19
2017-04-15T05:41:08.373Z,51.71
2017-04-15T05:42:08.468Z,51.9
2017-04-15T05:43:08.406Z,51.81
2017-04-15T05:44:08.422Z,51.62
2017-04-15T05:45:08.441Z,51.52
2017-04-15T05:46:08.467Z,51.71
2017-04-15T05:47:08.484Z,51.33
2017-04-15T05:48:08.180Z,51.33
2017-04-15T05:49:08.521Z,51.62
2017-04-15T05:50:08.533Z,51.43
2017-04-15T05:51:08.232Z,51.52
2017-04-15T05:52:08.571Z,51.62
2017-04-15T05:53:08.580Z,51.33
2017-04-15T05:54:08.605Z,51.43
2017-04-15T05:55:08.615Z,51.43
2017-04-15T05:56:08.634Z,51.43
2017-04-15T05:57:08.650Z,51.62
2017-04-15T05:58:08.352Z,51.43
2017-04-15T05:59:08.696Z,51.33
2017-04-15T06:00:08.701Z,51.33
2017-04-15T06:01:08.760Z,51.33
2017-04-15T06:02:08.744Z,51.33
2017-04-15T06:03:08.753Z,51.23
2017-04-15T06:04:08.775Z,50.95
2017-04-15T06:05:08.788Z,51.23
2017-04-15T06:06:08.895Z,51.33
2017-04-15T06:07:08.822Z,51.33
2017-04-15T06:08:08.843Z,50.95
2017-04-15T06:09:08.857Z,50.67
2017-04-15T06:10:08.562Z,50.57
2017-04-15T06:11:08.888Z,50.67
2017-04-15T06:12:08.909Z,50.76
2017-04-15T06:13:08.923Z,50.76
2017-04-15T06:14:08.943Z,50.76
2017-04-15T06:15:08.963Z,50.85
2017-04-15T06:16:08.977Z,50.49
2017-04-15T06:17:08.993Z,50.98
2017-04-15T06:18:09.015Z,50.31
2017-04-15T06:19:09.033Z,50.4
2017-04-15T06:20:08.733Z,50.31
2017-04-15T06:21:09.070Z,50.4
2017-04-15T06:22:09.088Z,50.21
2017-04-15T06:23:09.098Z,50.49
2017-04-15T06:24:09.114Z,50.31
2017-04-15T06:25:09.138Z,50.21
2017-04-15T06:26:09.149Z,50.59
2017-04-15T06:27:09.166Z,49.54
2017-04-15T06:28:09.187Z,50.02
2017-04-15T06:29:09.205Z,50.49
2017-04-15T06:30:09.220Z,50.21
2017-04-15T06:31:09.239Z,50.12
2017-04-15T06:32:08.941Z,49.54
2017-04-15T06:33:09.274Z,50.02
2017-04-15T06:34:09.294Z,49.83
2017-04-15T06:35:09.307Z,49.73
2017-04-15T06:36:09.323Z,49.93
2017-04-15T06:37:09.346Z,49.83
2017-04-15T06:38:09.363Z,49.83
2017-04-15T06:39:09.375Z,49.83
2017-04-15T06:40:09.395Z,49.73
2017-04-15T06:41:09.412Z,49.64
2017-04-15T06:42:09.436Z,50.21
2017-04-15T06:43:09.454Z,49.35
2017-04-15T06:44:09.466Z,49.35
2017-04-15T06:45:09.484Z,50.12
2017-04-15T06:46:09.499Z,49.93
2017-04-15T06:47:09.522Z,49.44
2017-04-15T06:48:09.534Z,49.54
2017-04-15T06:49:09.559Z,49.35
2017-04-15T06:50:09.254Z,49.93
2017-04-15T06:51:09.598Z,49.93
2017-04-15T06:52:09.290Z,50.31
2017-04-15T06:53:09.623Z,50.21
2017-04-15T06:54:09.643Z,49.54
2017-04-15T06:55:09.659Z,49.93
2017-04-15T06:56:09.676Z,49.16
2017-04-15T06:57:09.695Z,49.26
2017-04-15T06:58:09.712Z,49.26
2017-04-15T06:59:09.730Z,49.93
2017-04-15T07:00:09.431Z,49.18
2017-04-15T07:01:09.760Z,49.54
2017-04-15T07:02:09.782Z,49.18
2017-04-15T07:03:09.799Z,49.47
2017-04-15T07:04:09.502Z,48.99
2017-04-15T07:05:09.834Z,48.9
2017-04-15T07:06:09.851Z,49.28
2017-04-15T07:07:09.866Z,49.85
2017-04-15T07:08:09.578Z,49.09
2017-04-15T07:09:09.904Z,49.28
2017-04-15T07:10:09.921Z,48.71
2017-04-15T07:11:09.937Z,48.42
2017-04-15T07:12:09.957Z,48.23
2017-04-15T07:13:09.973Z,48.71
2017-04-15T07:14:09.991Z,48.33
2017-04-15T07:15:10.007Z,48.13
2017-04-15T07:16:10.024Z,48.13
2017-04-15T07:17:09.732Z,48.13
2017-04-15T07:18:10.063Z,48.13
2017-04-15T07:19:10.083Z,48.16
2017-04-15T07:20:10.097Z,48.16
2017-04-15T07:21:10.119Z,47.56
2017-04-15T07:22:10.155Z,48.25
2017-04-15T07:23:10.150Z,47.68
2017-04-15T07:24:10.169Z,47.87
2017-04-15T07:25:10.187Z,48.16
2017-04-15T07:26:10.203Z,48.83
2017-04-15T07:27:10.222Z,49.3
2017-04-15T07:28:10.244Z,49.21
2017-04-15T07:29:10.258Z,50.35
2017-04-15T07:30:10.279Z,50.16
2017-04-15T07:31:10.292Z,50.16
2017-04-15T07:32:09.999Z,50.55
2017-04-15T07:33:10.333Z,50.55
2017-04-15T07:34:10.349Z,50.35
2017-04-15T07:35:10.367Z,50.64
2017-04-15T07:36:10.393Z,51.03
2017-04-15T07:37:10.402Z,50.84
2017-04-15T07:38:10.421Z,50.74
2017-04-15T07:39:10.441Z,50.93
2017-04-15T07:40:10.143Z,51.12
2017-04-15T07:41:10.470Z,51.5
2017-04-15T07:42:10.551Z,51.41
2017-04-15T07:43:10.513Z,51.6
2017-04-15T07:44:10.527Z,51.98
2017-04-15T07:45:10.547Z,52.17
2017-04-15T07:46:10.253Z,51.98
2017-04-15T07:47:10.609Z,52.46
2017-04-15T07:48:10.604Z,52.46
2017-04-15T07:49:10.622Z,52.53
2017-04-15T07:50:10.640Z,52.91
2017-04-15T07:51:10.654Z,52.91
2017-04-15T07:52:10.675Z,53.29
2017-04-15T07:53:10.691Z,52.53
2017-04-15T07:54:10.711Z,53.29
2017-04-15T07:55:10.730Z,52.72
2017-04-15T07:56:10.744Z,52.91
2017-04-15T07:57:10.766Z,53.29
2017-04-15T07:58:10.779Z,53.29
2017-04-15T07:59:10.799Z,53.2
2017-04-15T08:00:10.818Z,53.2
2017-04-15T08:01:10.835Z,53
2017-04-15T08:02:10.854Z,53
2017-04-15T08:03:10.874Z,52.91
2017-04-15T08:04:10.888Z,53.29
2017-04-15T08:05:10.906Z,53.58
2017-04-15T08:06:10.927Z,53.29
2017-04-15T08:07:11.129Z,52.91
2017-04-15T08:08:10.647Z,53.77
2017-04-15T08:09:10.981Z,53.77
2017-04-15T08:10:10.996Z,54.44
2017-04-15T08:11:11.017Z,54.25
2017-04-15T08:12:11.032Z,53.99
2017-04-15T08:13:11.050Z,54.34
2017-04-15T08:14:11.076Z,54.34
2017-04-15T08:15:11.088Z,54.18
2017-04-15T08:16:11.105Z,53.67
2017-04-15T08:17:11.128Z,53.7
2017-04-15T08:18:11.140Z,54.53
2017-04-15T08:19:11.167Z,54.82
2017-04-15T08:20:11.180Z,54.82
2017-04-15T08:21:11.196Z,55.23
2017-04-15T08:22:10.900Z,54.94
2017-04-15T08:23:11.231Z,55.23
2017-04-15T08:24:11.250Z,55.4
2017-04-15T08:25:11.267Z,55.42
2017-04-15T08:26:11.290Z,54.94
2017-04-15T08:27:11.301Z,54.91
2017-04-15T08:28:11.323Z,55.49
2017-04-15T08:29:11.341Z,54.85
2017-04-15T08:30:11.360Z,55.4
2017-04-15T08:31:11.374Z,55.2
2017-04-15T08:32:11.396Z,55.87
2017-04-15T08:33:11.415Z,55.49
2017-04-15T08:34:11.454Z,55.11
2017-04-15T08:35:11.447Z,55.49
2017-04-15T08:36:11.470Z,55.68
2017-04-15T08:37:11.486Z,55.77
2017-04-15T08:38:11.505Z,55.4
2017-04-15T08:39:11.530Z,55.68
2017-04-15T08:40:11.546Z,55.96
2017-04-15T08:41:11.559Z,55.77
2017-04-15T08:42:11.580Z,55.96
2017-04-15T08:43:11.595Z,56.16
2017-04-15T08:44:11.634Z,55.77
2017-04-15T08:45:11.633Z,55.87
2017-04-15T08:46:11.649Z,56.28
2017-04-15T08:47:11.669Z,56.18
2017-04-15T08:48:11.908Z,55.96
2017-04-15T08:49:11.390Z,56.16
2017-04-15T08:50:11.722Z,56.82
2017-04-15T08:51:11.740Z,56.63
2017-04-15T08:52:11.758Z,56.25
2017-04-15T08:53:11.779Z,56.25
2017-04-15T08:54:11.795Z,56.73
2017-04-15T08:55:11.498Z,56.82
2017-04-15T08:56:11.519Z,56.54
2017-04-15T08:57:11.847Z,56.63
2017-04-15T08:58:11.868Z,56.63
2017-04-15T08:59:11.885Z,56.82
2017-04-15T09:00:11.904Z,56.73
2017-04-15T09:01:11.920Z,57.02
2017-04-15T09:02:11.939Z,56.82
2017-04-15T09:03:11.644Z,56.92
2017-04-15T09:04:11.977Z,56.82
2017-04-15T09:05:11.993Z,56.63
2017-04-15T09:06:12.017Z,57.4
2017-04-15T09:07:12.031Z,57.31
2017-04-15T09:08:12.049Z,57.21
2017-04-15T09:09:12.065Z,56.54
2017-04-15T09:10:12.089Z,56.92
2017-04-15T09:11:12.101Z,57.02
2017-04-15T09:12:11.807Z,56.82
2017-04-15T09:13:11.835Z,57.02
2017-04-15T09:14:12.162Z,56.82
2017-04-15T09:15:11.862Z,56.63
2017-04-15T09:16:12.193Z,57.02
2017-04-15T09:17:12.211Z,56.54
2017-04-15T09:18:11.947Z,57.31
2017-04-15T09:19:12.254Z,57.33
2017-04-15T09:20:11.956Z,57.14
2017-04-15T09:21:12.285Z,57.14
2017-04-15T09:22:12.303Z,56.67
2017-04-15T09:23:12.324Z,56.18
2017-04-15T09:24:12.339Z,56.38
2017-04-15T09:25:12.360Z,56.47
2017-04-15T09:26:12.377Z,56.38
2017-04-15T09:27:12.396Z,56.38
2017-04-15T09:28:12.411Z,56.09
2017-04-15T09:29:12.120Z,55.99
2017-04-15T09:30:12.452Z,56.09
2017-04-15T09:31:12.470Z,55.8
2017-04-15T09:32:12.489Z,55.9
2017-04-15T09:33:12.505Z,55.9
2017-04-15T09:34:12.526Z,55.52
2017-04-15T09:35:12.541Z,55.13
2017-04-15T09:36:12.559Z,55.8
2017-04-15T09:37:12.263Z,55.04
2017-04-15T09:38:12.598Z,55.32
2017-04-15T09:39:12.621Z,55.42
2017-04-15T09:40:12.634Z,54.56
2017-04-15T09:41:12.653Z,55.52
2017-04-15T09:42:12.356Z,55.13
2017-04-15T09:43:12.695Z,54.47
2017-04-15T09:44:12.709Z,54.37
2017-04-15T09:45:12.724Z,54.08
2017-04-15T09:46:12.745Z,54.27
2017-04-15T09:47:13.010Z,54.56
2017-04-15T09:48:12.781Z,54.56
2017-04-15T09:49:12.801Z,54.56
2017-04-15T09:50:12.819Z,54.39
2017-04-15T09:51:12.836Z,54.27
2017-04-15T09:52:12.854Z,53.82
2017-04-15T09:53:12.880Z,54.3
2017-04-15T09:54:12.894Z,54.21
2017-04-15T09:55:12.910Z,53.53
2017-04-15T09:56:12.928Z,54.02
2017-04-15T09:57:12.948Z,54.11
2017-04-15T09:58:12.968Z,53.06
2017-04-15T09:59:12.984Z,53.06
2017-04-15T10:00:13.001Z,53.73
2017-04-15T10:01:13.024Z,53.34
2017-04-15T10:02:13.039Z,53.44
2017-04-15T10:03:13.059Z,52.58
2017-04-15T10:04:13.084Z,52.67
2017-04-15T10:05:12.784Z,52.87
2017-04-15T10:06:13.120Z,52.87
2017-04-15T10:07:13.135Z,52.87
2017-04-15T10:08:13.151Z,52.29
2017-04-15T10:09:13.173Z,52.39
2017-04-15T10:10:13.185Z,52.2
2017-04-15T10:11:13.206Z,52.48
2017-04-15T10:12:13.226Z,52.29
2017-04-15T10:13:13.245Z,52.1
2017-04-15T10:14:13.265Z,52.48
2017-04-15T10:15:13.283Z,52.29
2017-04-15T10:16:13.305Z,52.01
2017-04-15T10:17:13.317Z,52.1
2017-04-15T10:18:13.340Z,52.2
2017-04-15T10:19:13.359Z,52.01
2017-04-15T10:20:13.379Z,52.01
2017-04-15T10:21:13.391Z,52.01
2017-04-15T10:22:13.414Z,52.2
2017-04-15T10:23:13.434Z,52.2
2017-04-15T10:24:13.450Z,52.29
2017-04-15T10:25:13.471Z,52.67
2017-04-15T10:26:13.487Z,53.63
2017-04-15T10:27:13.192Z,54.21
2017-04-15T10:28:13.524Z,54.21
2017-04-15T10:29:13.545Z,54.78
2017-04-15T10:30:13.615Z,54.88
2017-04-15T10:31:13.579Z,55.16
2017-04-15T10:32:13.595Z,55.45
2017-04-15T10:33:13.620Z,55.07
2017-04-15T10:34:13.640Z,55.45
2017-04-15T10:35:13.656Z,55.45
2017-04-15T10:36:13.673Z,55.45
2017-04-15T10:37:13.693Z,55.74
2017-04-15T10:38:13.712Z,55.45
2017-04-15T10:39:13.733Z,55.9
2017-04-15T10:40:13.749Z,55.54
2017-04-15T10:41:13.769Z,55.93
2017-04-15T10:42:13.786Z,56.28
2017-04-15T10:43:13.802Z,56.09
2017-04-15T10:44:13.822Z,55.99
2017-04-15T10:45:13.874Z,56.09
2017-04-15T10:46:13.860Z,56.38
2017-04-15T10:47:13.879Z,55.9
2017-04-15T10:48:13.901Z,55.9
2017-04-15T10:49:13.918Z,55.99
2017-04-15T10:50:13.939Z,55.61
2017-04-15T10:51:13.640Z,55.71
2017-04-15T10:52:13.973Z,55.61
2017-04-15T10:53:13.991Z,55.52
2017-04-15T10:54:14.011Z,55.71
2017-04-15T10:55:14.031Z,54.94
2017-04-15T10:56:13.734Z,54.94
2017-04-15T10:57:14.064Z,54.75
2017-04-15T10:58:13.777Z,55.04
2017-04-15T10:59:13.789Z,54.75
2017-04-15T11:00:14.122Z,55.52
2017-04-15T11:01:14.137Z,55.13
2017-04-15T11:02:14.162Z,54.94
2017-04-15T11:03:14.177Z,55.49
2017-04-15T11:04:14.194Z,54.82
2017-04-15T11:05:14.212Z,54.72
2017-04-15T11:06:14.231Z,54.44
2017-04-15T11:07:14.250Z,55.4
2017-04-15T11:08:14.277Z,55.52
2017-04-15T11:09:14.287Z,54.82
2017-04-15T11:10:14.306Z,54.91
2017-04-15T11:11:14.326Z,55.04
2017-04-15T11:12:14.354Z,55.11
2017-04-15T11:13:14.366Z,54.25
2017-04-15T11:14:14.377Z,54.63
2017-04-15T11:15:14.397Z,54.75
2017-04-15T11:16:14.411Z,54.25
2017-04-15T11:17:14.432Z,54.94
2017-04-15T11:18:14.449Z,54.08
2017-04-15T11:19:14.469Z,54.27
2017-04-15T11:20:14.486Z,54.15
2017-04-15T11:21:14.509Z,54.18
2017-04-15T11:22:14.526Z,54.56
2017-04-15T11:23:14.546Z,53.51
2017-04-15T11:24:14.250Z,53.32
2017-04-15T11:25:14.580Z,53.89
2017-04-15T11:26:14.607Z,53.99
2017-04-15T11:27:14.614Z,53.51
2017-04-15T11:28:14.633Z,53.7
2017-04-15T11:29:14.656Z,53.7
2017-04-15T11:30:14.720Z,53.32
2017-04-15T11:31:14.695Z,53.03
2017-04-15T11:32:14.705Z,53.61
2017-04-15T11:33:14.729Z,53.41
2017-04-15T11:34:14.748Z,53.32
2017-04-15T11:35:14.765Z,53.61
2017-04-15T11:36:14.781Z,53.22
2017-04-15T11:37:14.487Z,52.84
2017-04-15T11:38:14.819Z,52.94
2017-04-15T11:39:14.840Z,52.84
2017-04-15T11:40:14.852Z,52.84
2017-04-15T11:41:14.879Z,53.32
2017-04-15T11:42:14.889Z,53.22
2017-04-15T11:43:14.909Z,53.51
2017-04-15T11:44:14.926Z,53.41
2017-04-15T11:45:14.951Z,52.55
2017-04-15T11:46:14.965Z,52.65
2017-04-15T11:47:14.987Z,52.55
2017-04-15T11:48:14.997Z,53.13
2017-04-15T11:49:15.020Z,53.13
2017-04-15T11:50:15.037Z,52.75
2017-04-15T11:51:15.054Z,53.32
2017-04-15T11:52:14.761Z,53.22
2017-04-15T11:53:14.779Z,52.94
2017-04-15T11:54:15.110Z,52.84
2017-04-15T11:55:15.129Z,53.03
2017-04-15T11:56:15.150Z,52.75
2017-04-15T11:57:15.167Z,52.94
2017-04-15T11:58:15.188Z,52.75
2017-04-15T11:59:15.206Z,52.94
2017-04-15T12:00:15.220Z,52.84
2017-04-15T12:01:15.240Z,52.94
2017-04-15T12:02:15.259Z,52.65
2017-04-15T12:03:15.279Z,52.75
2017-04-15T12:04:15.293Z,52.75
2017-04-15T12:05:15.312Z,52.94
2017-04-15T12:06:15.336Z,52.84
2017-04-15T12:07:15.357Z,53.03
2017-04-15T12:08:15.503Z,52.46
2017-04-15T12:09:15.385Z,52.55
2017-04-15T12:10:15.405Z,52.75
2017-04-15T12:11:15.420Z,52.75
2017-04-15T12:12:15.438Z,52.94
2017-04-15T12:13:15.146Z,52.84
2017-04-15T12:14:15.478Z,52.94
2017-04-15T12:15:15.503Z,52.65
2017-04-15T12:16:15.517Z,53.03
2017-04-15T12:17:15.220Z,52.84
2017-04-15T12:18:15.552Z,52.65
2017-04-15T12:19:15.572Z,52.65
2017-04-15T12:20:15.586Z,52.46
2017-04-15T12:21:15.609Z,52.46
2017-04-15T12:22:15.743Z,52.17
2017-04-15T12:23:15.644Z,52.46
2017-04-15T12:24:15.664Z,52.26
2017-04-15T12:25:15.686Z,52.17
2017-04-15T12:26:15.811Z,52.46
2017-04-15T12:27:15.404Z,52.36
2017-04-15T12:28:15.754Z,52.36
2017-04-15T12:29:15.762Z,52.26
2017-04-15T12:30:15.773Z,52.65
2017-04-15T12:31:15.905Z,52.08
2017-04-15T12:32:15.912Z,52.17
2017-04-15T12:33:15.922Z,52.46
2017-04-15T12:34:15.962Z,52.46
2017-04-15T12:35:15.962Z,52.46
2017-04-15T12:36:15.993Z,52.36
2017-04-15T12:37:15.589Z,52.08
2017-04-15T12:38:15.919Z,52.55
2017-04-15T12:39:16.026Z,52.17
2017-04-15T12:40:16.034Z,52.26
2017-04-15T12:41:16.168Z,52.2
2017-04-15T12:42:16.077Z,52.2
2017-04-15T12:43:16.086Z,51.81
2017-04-15T12:44:16.093Z,51.91
2017-04-15T12:45:16.092Z,52.01
2017-04-15T12:46:16.101Z,52.1
2017-04-15T12:47:15.813Z,51.91
2017-04-15T12:48:15.817Z,51.91
2017-04-15T12:49:16.130Z,51.91
2017-04-15T12:50:16.143Z,52.01
2017-04-15T12:51:16.161Z,51.81
2017-04-15T12:52:16.182Z,52.01
2017-04-15T12:53:16.203Z,52.01
2017-04-15T12:54:16.218Z,52.01
2017-04-15T12:55:16.233Z,51.91